メインページ
METAR-TAF:

METAR-TAF

空港 :

稚内空港

稚内, 日本

緯度: 45-24N, 経度: 141-48E, 海抜: 8m

現時点の気象観測

当レポートは13時間17分前の09:00(UTC)に作成
西/南西の風 16kt
気温 6°C
湿度 93%
気圧 1010 hPa
視程: 8000m
高度1000ftの雲はほとんどない
高度1500ftの雲は散在している
高度2000ftの千切れ雲あり
弱いにわか雨

METAR: RJCW 160900Z 25016KT 8000 -SHRA FEW010 SCT015 BKN020 06/05 Q1010

時間: 07:17 (22:17 UTC)


TAF: 見つかりません

4,000以上の空港の気象観測と天気予報(METAR報とTAF報)

利用可能な観測所は地図上に黄色い丸と赤い丸で示す。

丸の上にカーソルを重ねると観測所名を参照できる。

次にクリックすると気象観測と天気予報を参照できる。

マップの切り替え:黒色「×」印の緑ボタンをクリックして拡大、「-」印の緑ボタンをクリックして縮小、緑色の三角印をクリックして隣りの地図に切り替え


METAR-TAF: